createdAt,value
2016-10-05T03:01:23.928Z,0
2016-10-05T03:01:49.875Z,0
2016-10-05T03:02:15.640Z,0
2016-10-05T03:02:41.385Z,0
2016-10-05T03:03:07.271Z,0
2016-10-05T03:03:33.109Z,0
2016-10-05T03:03:58.847Z,0
2016-10-05T03:04:24.793Z,0
2016-10-05T03:04:50.781Z,0
2016-10-05T03:05:16.464Z,0
2016-10-05T03:05:42.241Z,0
2016-10-05T03:06:07.896Z,0
2016-10-05T03:06:33.507Z,0
2016-10-05T03:06:59.130Z,0
2016-10-05T03:07:24.646Z,0
2016-10-05T03:07:50.275Z,0
2016-10-05T03:08:16.526Z,0
2016-10-05T03:08:42.269Z,0
2016-10-05T03:09:07.899Z,0
2016-10-05T03:09:33.540Z,0
2016-10-05T03:09:59.210Z,0
2016-10-05T03:10:24.872Z,0
2016-10-05T03:10:50.501Z,0
2016-10-05T03:11:16.080Z,0
2016-10-05T03:11:41.689Z,0
2016-10-05T03:12:07.241Z,0
2016-10-05T03:12:32.955Z,0
2016-10-05T03:12:58.611Z,0
2016-10-05T03:13:24.142Z,0
2016-10-05T03:13:49.785Z,0
2016-10-05T03:14:15.326Z,0
2016-10-05T03:14:40.897Z,0
2016-10-05T03:16:04.701Z,0
2016-10-05T03:16:30.315Z,0
2016-10-05T03:16:56.032Z,0
2016-10-05T03:17:21.675Z,0
2016-10-05T03:17:47.328Z,0
2016-10-05T03:18:12.933Z,0
2016-10-05T03:18:38.603Z,0
2016-10-05T03:19:04.172Z,0
2016-10-05T03:19:29.857Z,0
2016-10-05T03:19:55.515Z,0
2016-10-05T03:20:21.155Z,0
2016-10-05T03:20:46.760Z,0
2016-10-05T03:21:12.385Z,0
2016-10-05T03:21:37.966Z,0
2016-10-05T03:22:03.545Z,0
2016-10-05T03:22:29.134Z,0
2016-10-05T03:22:54.789Z,0
2016-10-05T03:23:20.416Z,0
2016-10-05T03:23:45.941Z,0
2016-10-05T03:24:11.560Z,0
2016-10-05T03:24:37.132Z,0
2016-10-05T03:25:02.714Z,0
2016-10-05T03:25:28.275Z,0
2016-10-05T03:25:53.948Z,0
2016-10-05T03:26:19.639Z,0
2016-10-05T03:26:45.194Z,0
2016-10-05T03:27:10.850Z,0
2016-10-05T03:27:36.475Z,0
2016-10-05T03:28:02.268Z,0
2016-10-05T03:28:27.895Z,0
2016-10-05T03:28:53.506Z,0
2016-10-05T03:29:19.057Z,0
2016-10-05T03:29:44.662Z,0
2016-10-05T03:30:10.255Z,0
2016-10-05T03:30:35.866Z,0
2016-10-05T03:31:01.530Z,0
2016-10-05T03:31:27.013Z,0
2016-10-05T03:31:52.690Z,0
2016-10-05T03:32:18.246Z,0
2016-10-05T03:32:43.874Z,0
2016-10-05T03:33:09.438Z,0
2016-10-05T03:33:35.064Z,0
2016-10-05T03:34:00.637Z,0
2016-10-05T03:34:26.203Z,0
2016-10-05T03:34:51.888Z,0
2016-10-05T03:35:17.446Z,0
2016-10-05T03:35:43.004Z,0
2016-10-05T03:36:08.644Z,0
2016-10-05T03:37:26.213Z,0
2016-10-05T03:37:51.821Z,0
2016-10-05T03:38:17.416Z,0
2016-10-05T03:38:43.035Z,0
2016-10-05T03:39:08.808Z,0
2016-10-05T03:39:34.354Z,0
2016-10-05T03:40:00.028Z,0
2016-10-05T03:40:26.101Z,0
2016-10-05T03:40:51.758Z,0
2016-10-05T03:41:18.065Z,0
2016-10-05T03:41:43.708Z,0
2016-10-05T03:42:09.783Z,0
2016-10-05T03:42:35.334Z,0
2016-10-05T03:43:00.942Z,0
2016-10-05T03:43:27.152Z,0
2016-10-05T03:43:52.711Z,0
2016-10-05T03:44:18.875Z,0
2016-10-05T03:44:44.439Z,0
2016-10-05T03:45:10.085Z,0
2016-10-05T03:45:36.312Z,0
2016-10-05T03:46:01.918Z,0
2016-10-05T03:46:28.163Z,0
2016-10-05T03:46:53.752Z,0
2016-10-05T03:47:19.827Z,0
2016-10-05T03:47:45.397Z,0
2016-10-05T03:48:10.936Z,0
2016-10-05T03:48:37.192Z,0
2016-10-05T03:49:02.778Z,0
2016-10-05T03:49:29.014Z,0
2016-10-05T03:49:54.697Z,0
2016-10-05T03:50:20.326Z,0
2016-10-05T03:50:46.352Z,0
2016-10-05T03:51:11.907Z,0
2016-10-05T03:51:38.146Z,0
2016-10-05T03:52:03.743Z,0
2016-10-05T03:52:29.923Z,0
2016-10-05T03:52:55.486Z,0
2016-10-05T03:53:21.099Z,0
2016-10-05T03:53:47.246Z,0
2016-10-05T03:54:12.819Z,0
2016-10-05T03:54:39.053Z,0
2016-10-05T03:55:04.619Z,0
2016-10-05T03:55:30.239Z,0
2016-10-05T03:55:56.433Z,0
2016-10-05T03:56:22.010Z,0
2016-10-05T03:56:48.262Z,0
2016-10-05T03:57:13.854Z,0
2016-10-05T03:57:40.014Z,0
2016-10-05T03:58:05.599Z,0
2016-10-05T03:58:31.166Z,0
2016-10-05T03:58:57.377Z,0
2016-10-05T03:59:22.933Z,0
2016-10-05T03:59:49.606Z,0
2016-10-05T04:00:15.163Z,0
2016-10-05T04:00:40.768Z,0
2016-10-05T04:01:06.561Z,0
2016-10-05T04:01:32.125Z,0
2016-10-05T04:01:58.305Z,0
2016-10-05T04:02:23.858Z,0
2016-10-05T04:02:50.032Z,0
2016-10-05T04:03:15.560Z,0
2016-10-05T04:03:41.236Z,0
2016-10-05T04:04:07.695Z,0
2016-10-05T04:04:33.251Z,0
2016-10-05T04:04:59.243Z,0
2016-10-05T04:05:24.814Z,0
2016-10-05T04:05:50.381Z,0
2016-10-05T04:06:16.680Z,0
2016-10-05T04:06:42.298Z,0
2016-10-05T04:07:08.433Z,0
2016-10-05T04:07:34.008Z,0
2016-10-05T04:08:00.187Z,0
2016-10-05T04:08:25.884Z,0
2016-10-05T04:08:51.484Z,0
2016-10-05T04:09:17.625Z,0
2016-10-05T04:09:43.247Z,0
2016-10-05T04:10:09.353Z,0
2016-10-05T04:10:34.905Z,0
2016-10-05T04:11:00.526Z,0
2016-10-05T04:11:26.718Z,0
2016-10-05T04:11:52.288Z,0
2016-10-05T04:12:18.503Z,0
2016-10-05T04:12:44.077Z,0
2016-10-05T04:13:10.299Z,0
2016-10-05T04:13:35.854Z,0
2016-10-05T04:14:01.458Z,0
2016-10-05T04:14:27.661Z,0
2016-10-05T04:14:53.326Z,0
2016-10-05T04:15:19.381Z,0
2016-10-05T04:15:44.955Z,0
2016-10-05T04:16:10.527Z,0
2016-10-05T04:16:36.723Z,0
2016-10-05T04:17:02.374Z,0
2016-10-05T04:17:28.545Z,0
2016-10-05T04:17:54.094Z,0
2016-10-05T04:18:20.305Z,0
2016-10-05T04:18:45.861Z,0
2016-10-05T04:19:11.398Z,0
2016-10-05T04:19:37.691Z,0
2016-10-05T04:20:03.265Z,0
2016-10-05T04:20:29.532Z,0
2016-10-05T04:20:55.125Z,0
2016-10-05T04:21:20.705Z,0
2016-10-05T04:21:46.881Z,0
2016-10-05T04:22:12.563Z,0
2016-10-05T04:22:38.747Z,0
2016-10-05T04:23:04.325Z,0
2016-10-05T04:23:30.461Z,0
2016-10-05T04:23:56.040Z,0
2016-10-05T04:24:21.620Z,0
2016-10-05T04:24:47.923Z,0
2016-10-05T04:25:13.646Z,0
2016-10-05T04:25:39.646Z,0
2016-10-05T04:26:05.213Z,0
2016-10-05T04:26:30.817Z,0
2016-10-05T04:26:57.823Z,0
2016-10-05T04:27:23.386Z,0
2016-10-05T04:27:49.051Z,0
2016-10-05T04:28:14.680Z,0
2016-10-05T04:28:40.539Z,0
2016-10-05T04:29:06.125Z,0
2016-10-05T04:29:31.818Z,0
2016-10-05T04:29:57.992Z,0
2016-10-05T04:30:23.667Z,0
2016-10-05T04:30:49.685Z,0
2016-10-05T04:31:15.248Z,0
2016-10-05T04:31:40.806Z,0
2016-10-05T04:32:07.156Z,0
2016-10-05T04:32:32.759Z,0
2016-10-05T04:32:58.913Z,0
2016-10-05T04:33:24.492Z,0
2016-10-05T04:33:50.637Z,0
2016-10-05T04:34:16.191Z,0
2016-10-05T04:34:41.771Z,0
2016-10-05T04:35:08.003Z,0
2016-10-05T04:35:33.714Z,0
2016-10-05T04:35:59.797Z,0
2016-10-05T04:36:25.376Z,0
2016-10-05T04:36:50.989Z,0
2016-10-05T04:37:17.256Z,0
2016-10-05T04:37:42.843Z,0
2016-10-05T04:38:08.944Z,0
2016-10-05T04:38:34.501Z,0
2016-10-05T04:39:00.748Z,0
2016-10-05T04:39:26.357Z,0
2016-10-05T04:39:51.951Z,0
2016-10-05T04:40:18.096Z,0
2016-10-05T04:40:43.756Z,0
2016-10-05T04:41:09.918Z,0
2016-10-05T04:41:35.492Z,0
2016-10-05T04:42:01.095Z,0
2016-10-05T04:42:27.307Z,0
2016-10-05T04:42:52.923Z,0
2016-10-05T04:43:19.061Z,0
2016-10-05T04:43:44.613Z,0
2016-10-05T04:44:10.815Z,0
2016-10-05T04:44:36.387Z,0
2016-10-05T04:45:01.942Z,0
2016-10-05T04:45:28.236Z,0
2016-10-05T04:45:53.861Z,0
2016-10-05T04:46:19.953Z,0
2016-10-05T04:46:45.504Z,0
2016-10-05T04:47:11.175Z,0
2016-10-05T04:47:37.360Z,0
2016-10-05T04:48:02.949Z,0
2016-10-05T04:48:29.155Z,0
2016-10-05T04:48:54.735Z,0
2016-10-05T04:49:20.918Z,0
2016-10-05T04:49:46.466Z,0
2016-10-05T04:50:12.087Z,0
2016-10-05T04:50:38.294Z,0
2016-10-05T04:51:03.888Z,0
2016-10-05T04:51:30.060Z,0
2016-10-05T04:51:55.625Z,0
2016-10-05T04:52:21.226Z,0
2016-10-05T04:52:47.410Z,0
2016-10-05T04:53:13.146Z,0
2016-10-05T04:53:39.293Z,0
2016-10-05T04:54:04.873Z,0
2016-10-05T04:54:30.967Z,0
2016-10-05T04:54:56.562Z,0
2016-10-05T04:55:22.213Z,0
2016-10-05T04:55:48.410Z,0
2016-10-05T04:56:14.031Z,0
2016-10-05T04:56:40.176Z,0
2016-10-05T04:57:05.726Z,0
2016-10-05T04:57:31.379Z,0
2016-10-05T04:57:57.599Z,0
2016-10-05T04:58:23.225Z,0
2016-10-05T04:58:49.313Z,0
2016-10-05T04:59:14.885Z,0
2016-10-05T04:59:41.118Z,0
2016-10-05T05:00:06.688Z,0
2016-10-05T05:00:32.263Z,0
2016-10-05T05:00:58.444Z,0
2016-10-05T05:01:24.110Z,0
2016-10-05T05:01:50.215Z,0
2016-10-05T05:02:15.781Z,0
2016-10-05T05:02:41.453Z,0
2016-10-05T05:03:07.550Z,0
2016-10-05T05:03:33.277Z,0
2016-10-05T05:03:59.430Z,0
2016-10-05T05:04:25.003Z,0
2016-10-05T05:04:51.178Z,0
2016-10-05T05:05:16.766Z,0
2016-10-05T05:05:42.343Z,0
2016-10-05T05:06:08.592Z,0
2016-10-05T05:06:34.196Z,0
2016-10-05T05:07:00.358Z,0
2016-10-05T05:07:25.923Z,0
2016-10-05T05:07:51.507Z,0
2016-10-05T05:08:17.815Z,0
2016-10-05T05:08:43.381Z,0
2016-10-05T05:09:09.527Z,0
2016-10-05T05:09:35.257Z,0
2016-10-05T05:10:01.302Z,0
2016-10-05T05:10:26.905Z,0
2016-10-05T05:10:52.489Z,0
2016-10-05T05:11:18.662Z,0
2016-10-05T05:11:44.218Z,0
2016-10-05T05:12:10.381Z,0
2016-10-05T05:12:35.945Z,0
2016-10-05T05:13:01.640Z,0
2016-10-05T05:13:27.788Z,0
2016-10-05T05:13:53.377Z,0
2016-10-05T05:14:19.634Z,0
2016-10-05T05:14:45.329Z,0
2016-10-05T05:15:11.420Z,0
2016-10-05T05:15:37.025Z,0
2016-10-05T05:16:02.661Z,0
2016-10-05T05:16:28.964Z,0
2016-10-05T05:16:54.534Z,0
2016-10-05T05:17:20.525Z,0
2016-10-05T05:17:46.081Z,0
2016-10-05T05:18:11.704Z,4
2016-10-05T05:18:37.983Z,4
2016-10-05T05:19:03.568Z,0
2016-10-05T05:19:29.744Z,0
2016-10-05T05:19:55.303Z,0
2016-10-05T05:20:21.440Z,0
2016-10-05T05:20:47.019Z,0
2016-10-05T05:21:12.611Z,0
2016-10-05T05:21:38.800Z,0
2016-10-05T05:22:04.492Z,4
2016-10-05T05:22:30.622Z,4
2016-10-05T05:22:56.184Z,4
2016-10-05T05:23:21.961Z,4
2016-10-05T05:23:48.023Z,0
2016-10-05T05:24:13.710Z,0
2016-10-05T05:24:39.792Z,0
2016-10-05T05:25:05.354Z,4
2016-10-05T05:25:31.658Z,4
2016-10-05T05:25:57.307Z,4
2016-10-05T05:26:22.940Z,4
2016-10-05T05:26:49.012Z,0
2016-10-05T05:27:14.650Z,4
2016-10-05T05:27:40.695Z,4
2016-10-05T05:28:06.292Z,4
2016-10-05T05:28:31.881Z,4
2016-10-05T05:28:58.135Z,4
2016-10-05T05:29:23.696Z,4
2016-10-05T05:29:49.903Z,4
2016-10-05T05:30:15.458Z,4
2016-10-05T05:30:41.656Z,8
2016-10-05T05:31:07.225Z,4
2016-10-05T05:31:32.804Z,4
2016-10-05T05:31:59.027Z,4
2016-10-05T05:32:24.633Z,8
2016-10-05T05:32:50.814Z,4
2016-10-05T05:33:16.363Z,4
2016-10-05T05:33:41.998Z,8
2016-10-05T05:34:08.176Z,8
2016-10-05T05:34:33.730Z,4
2016-10-05T05:34:59.959Z,8
2016-10-05T05:35:25.619Z,8
2016-10-05T05:35:51.764Z,8
2016-10-05T05:36:17.356Z,8
2016-10-05T05:36:42.939Z,12
2016-10-05T05:37:09.121Z,8
2016-10-05T05:37:34.680Z,8
2016-10-05T05:38:00.946Z,12
2016-10-05T05:38:26.507Z,8
2016-10-05T05:38:52.176Z,12
2016-10-05T05:39:18.302Z,12
2016-10-05T05:39:43.871Z,12
2016-10-05T05:40:10.080Z,12
2016-10-05T05:40:35.654Z,16
2016-10-05T05:41:01.890Z,12
2016-10-05T05:41:27.493Z,16
2016-10-05T05:41:53.115Z,16
2016-10-05T05:42:19.314Z,12
2016-10-05T05:42:45.162Z,16
2016-10-05T05:43:11.093Z,16
2016-10-05T05:43:36.672Z,20
2016-10-05T05:44:02.243Z,16
2016-10-05T05:44:28.408Z,20
2016-10-05T05:44:54.034Z,20
2016-10-05T05:45:20.211Z,20
2016-10-05T05:45:45.761Z,20
2016-10-05T05:46:11.935Z,20
2016-10-05T05:46:37.553Z,20
2016-10-05T05:47:03.232Z,24
2016-10-05T05:47:29.289Z,24
2016-10-05T05:47:54.933Z,24
2016-10-05T05:48:21.219Z,24
2016-10-05T05:48:46.790Z,24
2016-10-05T05:49:12.453Z,24
2016-10-05T05:49:38.493Z,28
2016-10-05T05:50:04.157Z,28
2016-10-05T05:50:30.269Z,28
2016-10-05T05:50:55.840Z,28
2016-10-05T05:51:22.046Z,28
2016-10-05T05:51:47.604Z,28
2016-10-05T05:52:13.276Z,28
2016-10-05T05:52:39.497Z,28
2016-10-05T05:53:05.218Z,32
2016-10-05T05:53:31.135Z,32
2016-10-05T05:53:56.783Z,28
2016-10-05T05:54:22.329Z,32
2016-10-05T05:54:48.503Z,32
2016-10-05T05:55:14.129Z,32
2016-10-05T05:55:40.424Z,36
2016-10-05T05:56:06.058Z,32
2016-10-05T05:56:35.469Z,36
2016-10-05T05:57:00.612Z,36
2016-10-05T05:57:26.262Z,36
2016-10-05T05:57:51.813Z,36
2016-10-05T05:58:17.453Z,36
2016-10-05T05:58:43.013Z,36
2016-10-05T05:59:08.623Z,36
2016-10-05T05:59:34.312Z,40
2016-10-05T06:00:00.462Z,40
2016-10-05T06:00:25.569Z,40
2016-10-05T06:00:51.211Z,40
2016-10-05T06:01:59.541Z,40
2016-10-05T06:02:25.112Z,40
2016-10-05T06:02:50.702Z,44
2016-10-05T06:03:16.368Z,44
2016-10-05T06:03:42.006Z,40
2016-10-05T06:04:07.541Z,40
2016-10-05T06:04:33.189Z,44
2016-10-05T06:04:58.754Z,44
2016-10-05T06:05:24.349Z,44
2016-10-05T06:05:49.926Z,44
2016-10-05T06:06:15.584Z,44
2016-10-05T06:06:41.295Z,48
2016-10-05T06:07:44.827Z,44
2016-10-05T06:08:10.424Z,48
2016-10-05T06:08:35.979Z,48
2016-10-05T06:09:01.639Z,44
2016-10-05T06:09:27.313Z,48
2016-10-05T06:10:30.810Z,48
2016-10-05T06:10:56.464Z,48
2016-10-05T06:11:22.036Z,52
2016-10-05T06:11:47.695Z,48
2016-10-05T06:12:13.334Z,52
2016-10-05T06:12:38.909Z,52
2016-10-05T06:13:04.550Z,52
2016-10-05T06:13:30.115Z,52
2016-10-05T06:13:55.662Z,52
2016-10-05T06:14:21.247Z,52
2016-10-05T06:14:46.940Z,52
2016-10-05T06:15:12.548Z,52
2016-10-05T06:15:38.118Z,56
2016-10-05T06:16:03.899Z,56
2016-10-05T06:16:29.537Z,56
2016-10-05T06:16:55.096Z,56
2016-10-05T06:17:20.772Z,56
2016-10-05T06:17:46.483Z,56
2016-10-05T06:18:12.029Z,60
2016-10-05T06:18:37.732Z,60
2016-10-05T06:19:03.938Z,60
2016-10-05T06:19:29.677Z,60
2016-10-05T06:19:55.350Z,60
2016-10-05T06:20:20.921Z,60
2016-10-05T06:20:46.500Z,64
2016-10-05T06:21:12.041Z,64
2016-10-05T06:21:37.637Z,64
2016-10-05T06:22:03.195Z,64
2016-10-05T06:22:28.855Z,60
2016-10-05T06:22:54.519Z,64
2016-10-05T06:23:20.079Z,64
2016-10-05T06:23:45.701Z,60
2016-10-05T06:24:11.265Z,64
2016-10-05T06:24:37.417Z,64
2016-10-05T06:25:02.959Z,64
2016-10-05T06:25:28.540Z,60
2016-10-05T06:25:54.084Z,64
2016-10-05T06:26:19.692Z,64
2016-10-05T06:26:45.245Z,68
2016-10-05T06:27:10.815Z,64
2016-10-05T06:27:36.368Z,68
2016-10-05T06:28:01.983Z,72
2016-10-05T06:28:27.536Z,72
2016-10-05T06:28:53.152Z,68
2016-10-05T06:29:18.805Z,72
2016-10-05T06:29:44.368Z,72
2016-10-05T06:30:09.963Z,68
2016-10-05T06:30:35.609Z,72
2016-10-05T06:31:38.913Z,72
2016-10-05T06:32:04.679Z,68
2016-10-05T06:33:07.953Z,72
2016-10-05T06:33:33.554Z,72
2016-10-05T06:33:59.112Z,72
2016-10-05T06:34:24.854Z,72
2016-10-05T06:34:50.402Z,76
2016-10-05T06:35:16.032Z,76
2016-10-05T06:35:41.658Z,72
2016-10-05T06:36:07.209Z,76
2016-10-05T06:36:32.893Z,76
2016-10-05T06:36:58.449Z,80
2016-10-05T06:37:24.093Z,76
2016-10-05T06:37:49.771Z,76
2016-10-05T06:38:15.348Z,80
2016-10-05T06:38:40.981Z,76
2016-10-05T06:39:06.657Z,80
2016-10-05T06:39:32.270Z,80
2016-10-05T06:39:58.032Z,80
2016-10-05T06:40:23.667Z,76
2016-10-05T06:41:32.854Z,76
2016-10-05T06:41:58.481Z,80
2016-10-05T06:42:24.088Z,80
2016-10-05T06:42:49.715Z,84
2016-10-05T06:44:46.006Z,80
2016-10-05T06:45:11.564Z,84
2016-10-05T06:45:37.222Z,84
2016-10-05T06:46:02.929Z,84
2016-10-05T06:47:06.204Z,84
2016-10-05T06:47:31.817Z,84
2016-10-05T06:47:57.426Z,84
2016-10-05T06:48:23.029Z,84
2016-10-05T06:48:48.602Z,84
2016-10-05T06:49:14.229Z,84
2016-10-05T06:49:39.857Z,88
2016-10-05T06:50:05.464Z,88
2016-10-05T06:50:31.096Z,88
2016-10-05T06:50:56.666Z,84
2016-10-05T06:51:22.274Z,92
2016-10-05T06:51:47.875Z,92
2016-10-05T06:52:13.425Z,88
2016-10-05T06:52:38.981Z,88
2016-10-05T06:53:04.527Z,84
2016-10-05T06:53:30.131Z,88
2016-10-05T06:53:55.714Z,88
2016-10-05T06:54:21.328Z,88
2016-10-05T06:54:46.928Z,88
2016-10-05T06:55:12.490Z,88
2016-10-05T06:55:38.273Z,92
2016-10-05T06:56:03.867Z,96
2016-10-05T06:56:29.473Z,88
2016-10-05T06:56:55.033Z,88
2016-10-05T06:57:20.592Z,88
2016-10-05T06:57:46.200Z,88
2016-10-05T06:58:11.752Z,84
2016-10-05T06:58:37.424Z,88
2016-10-05T06:59:03.072Z,88
2016-10-05T06:59:28.633Z,92
2016-10-05T06:59:54.342Z,92
2016-10-05T07:00:20.004Z,96
2016-10-05T07:00:45.625Z,92
2016-10-05T07:01:11.257Z,92
2016-10-05T07:01:36.811Z,92
2016-10-05T07:02:02.417Z,88
2016-10-05T07:02:27.983Z,84
2016-10-05T07:02:53.549Z,84
2016-10-05T07:03:19.138Z,88
2016-10-05T07:03:44.706Z,88
2016-10-05T07:04:10.282Z,88
2016-10-05T07:04:35.872Z,88
2016-10-05T07:05:01.572Z,88
2016-10-05T07:05:27.202Z,88
2016-10-05T07:05:52.762Z,88
2016-10-05T07:06:18.361Z,88
2016-10-05T07:06:44.013Z,88
2016-10-05T07:07:09.614Z,88
2016-10-05T07:07:35.265Z,88
2016-10-05T07:08:00.831Z,88
2016-10-05T07:08:26.431Z,88
2016-10-05T07:08:52.113Z,92
2016-10-05T07:09:17.680Z,88
2016-10-05T07:09:43.257Z,88
2016-10-05T07:10:08.822Z,92
2016-10-05T07:10:34.468Z,92
2016-10-05T07:11:00.016Z,92
2016-10-05T07:11:25.772Z,92
2016-10-05T07:11:51.414Z,96
2016-10-05T07:12:16.991Z,96
2016-10-05T07:14:23.932Z,104
2016-10-05T07:14:49.637Z,104
2016-10-05T07:15:15.226Z,112
2016-10-05T07:15:40.805Z,108
2016-10-05T07:16:06.392Z,112
2016-10-05T07:16:31.922Z,108
2016-10-05T07:16:57.528Z,108
2016-10-05T07:17:23.102Z,104
2016-10-05T07:17:48.783Z,108
2016-10-05T07:18:14.372Z,108
2016-10-05T07:18:39.951Z,108
2016-10-05T07:19:05.533Z,108
2016-10-05T07:19:31.105Z,108
2016-10-05T07:19:56.749Z,108
2016-10-05T07:20:22.406Z,112
2016-10-05T07:20:48.038Z,112
2016-10-05T07:21:14.350Z,112
2016-10-05T07:21:39.889Z,112
2016-10-05T07:22:05.448Z,112
2016-10-05T07:22:30.999Z,116
2016-10-05T07:22:56.605Z,112
2016-10-05T07:23:22.177Z,112
2016-10-05T07:23:47.849Z,112
2016-10-05T07:24:13.494Z,112
2016-10-05T07:24:39.066Z,112
2016-10-05T07:25:04.664Z,108
2016-10-05T07:25:30.363Z,108
2016-10-05T07:25:55.945Z,108
2016-10-05T07:26:21.527Z,108
2016-10-05T07:26:47.194Z,108
2016-10-05T07:27:12.974Z,108
2016-10-05T07:27:38.583Z,108
2016-10-05T07:28:04.157Z,108
2016-10-05T07:28:29.845Z,108
2016-10-05T07:28:55.474Z,108
2016-10-05T07:29:21.039Z,108
2016-10-05T07:29:46.602Z,108
2016-10-05T07:30:12.254Z,108
2016-10-05T07:30:38.091Z,108
2016-10-05T07:31:03.711Z,108
2016-10-05T07:31:29.315Z,108
2016-10-05T07:31:54.980Z,108
2016-10-05T07:32:20.631Z,108
2016-10-05T07:32:46.277Z,108
2016-10-05T07:33:13.119Z,108
2016-10-05T07:33:37.508Z,108
2016-10-05T07:34:03.098Z,108
2016-10-05T07:34:28.666Z,108
2016-10-05T07:34:54.233Z,112
2016-10-05T07:35:19.941Z,108
2016-10-05T07:35:45.554Z,108
2016-10-05T07:36:53.916Z,108
2016-10-05T07:37:19.498Z,112
2016-10-05T07:37:45.108Z,112
2016-10-05T07:38:10.743Z,108
2016-10-05T07:38:36.443Z,112
2016-10-05T07:39:02.085Z,112
2016-10-05T07:39:27.750Z,112
2016-10-05T07:39:53.319Z,112
2016-10-05T07:40:18.909Z,112
2016-10-05T07:40:44.476Z,108
2016-10-05T07:42:45.815Z,112
2016-10-05T07:43:11.382Z,112
2016-10-05T07:43:37.033Z,112
2016-10-05T07:44:02.691Z,112
2016-10-05T07:44:28.211Z,112
2016-10-05T07:44:53.863Z,112
2016-10-05T07:45:19.456Z,112
2016-10-05T07:45:45.135Z,112
2016-10-05T07:46:10.734Z,112
2016-10-05T07:46:36.316Z,112
2016-10-05T07:47:01.895Z,112
2016-10-05T07:47:27.465Z,112
2016-10-05T07:47:53.081Z,112
2016-10-05T07:48:18.636Z,112
2016-10-05T07:48:44.253Z,112
2016-10-05T07:49:10.024Z,112
2016-10-05T07:49:35.574Z,116
2016-10-05T07:50:01.301Z,116
2016-10-05T07:50:26.927Z,116
2016-10-05T07:50:52.489Z,112
2016-10-05T07:51:18.199Z,112
2016-10-05T07:51:43.844Z,112
2016-10-05T07:52:09.417Z,116
2016-10-05T07:52:34.973Z,112
2016-10-05T07:53:00.541Z,116
2016-10-05T07:53:26.144Z,112
2016-10-05T07:53:51.865Z,112
2016-10-05T07:54:17.403Z,112
2016-10-05T07:54:43.033Z,116
2016-10-05T07:55:08.595Z,116
2016-10-05T07:55:34.231Z,116
2016-10-05T07:55:59.861Z,116
2016-10-05T07:56:25.360Z,116
2016-10-05T07:56:51.021Z,116
2016-10-05T07:57:16.576Z,116
2016-10-05T07:57:42.256Z,112
2016-10-05T07:58:07.918Z,116
2016-10-05T07:58:33.439Z,116
2016-10-05T07:58:59.093Z,116
2016-10-05T07:59:24.639Z,116
2016-10-05T07:59:50.191Z,116
2016-10-05T08:00:15.738Z,116
2016-10-05T08:00:41.362Z,116
2016-10-05T08:01:06.907Z,112
2016-10-05T08:01:32.598Z,112
2016-10-05T08:01:58.191Z,112
2016-10-05T08:02:23.742Z,116
2016-10-05T08:02:50.166Z,116
2016-10-05T08:03:15.744Z,116
2016-10-05T08:04:34.369Z,116
2016-10-05T08:05:42.634Z,116
2016-10-05T08:06:08.238Z,116
2016-10-05T08:06:33.782Z,116
2016-10-05T08:06:59.429Z,116
2016-10-05T08:07:25.063Z,120
2016-10-05T08:07:50.644Z,116
2016-10-05T08:08:16.233Z,116
2016-10-05T08:08:41.769Z,116
2016-10-05T08:09:07.378Z,116
2016-10-05T08:09:32.935Z,120
2016-10-05T08:09:58.557Z,116
2016-10-05T08:10:24.208Z,116
2016-10-05T08:10:49.773Z,116
2016-10-05T08:11:15.411Z,116
2016-10-05T08:11:40.982Z,120
2016-10-05T08:12:06.797Z,120
2016-10-05T08:13:30.586Z,116
2016-10-05T08:13:56.215Z,116
2016-10-05T08:14:21.779Z,116
2016-10-05T08:14:47.340Z,120
2016-10-05T08:15:13.068Z,120
2016-10-05T08:15:38.876Z,116
2016-10-05T08:16:04.572Z,116
2016-10-05T08:16:30.120Z,116
2016-10-05T08:16:55.677Z,116
2016-10-05T08:17:21.257Z,116
2016-10-05T08:17:46.797Z,116
2016-10-05T08:18:12.372Z,120
2016-10-05T08:18:37.923Z,116
2016-10-05T08:19:03.491Z,116
2016-10-05T08:19:29.261Z,116
2016-10-05T08:19:54.796Z,120
2016-10-05T08:20:20.396Z,116
2016-10-05T08:20:45.936Z,120
2016-10-05T08:21:11.496Z,120
2016-10-05T08:21:37.052Z,120
2016-10-05T08:22:02.772Z,120
2016-10-05T08:22:28.350Z,120
2016-10-05T08:22:54.074Z,120
2016-10-05T08:23:19.683Z,120
2016-10-05T08:23:45.223Z,120
2016-10-05T08:24:10.969Z,120
2016-10-05T08:24:36.604Z,120
2016-10-05T08:25:02.169Z,120
2016-10-05T08:25:27.802Z,116
2016-10-05T08:25:53.378Z,120
2016-10-05T08:26:18.910Z,120
2016-10-05T08:26:44.497Z,120
2016-10-05T08:27:10.016Z,116
2016-10-05T08:27:35.648Z,116
2016-10-05T08:28:01.180Z,120
2016-10-05T08:28:26.801Z,120
2016-10-05T08:28:52.461Z,120
2016-10-05T08:29:18.033Z,116
2016-10-05T08:29:43.705Z,116
2016-10-05T08:30:09.449Z,116
2016-10-05T08:30:35.005Z,120
2016-10-05T08:31:00.578Z,116
2016-10-05T08:31:26.253Z,116
2016-10-05T08:31:51.847Z,116
2016-10-05T08:32:17.486Z,120
2016-10-05T08:32:43.061Z,120
2016-10-05T08:33:08.616Z,120
2016-10-05T08:33:34.172Z,120
2016-10-05T08:33:59.843Z,120
2016-10-05T08:34:25.606Z,116
2016-10-05T08:34:51.218Z,120
2016-10-05T08:35:16.900Z,120
2016-10-05T08:35:42.564Z,120
2016-10-05T08:36:08.158Z,120
2016-10-05T08:36:33.845Z,120
2016-10-05T08:36:59.523Z,120
2016-10-05T08:37:25.066Z,120
2016-10-05T08:37:50.724Z,120
2016-10-05T08:38:16.273Z,116
2016-10-05T08:38:41.935Z,116
2016-10-05T08:39:07.545Z,120
2016-10-05T08:39:33.108Z,116
2016-10-05T08:39:58.770Z,120
2016-10-05T08:40:24.330Z,120
2016-10-05T08:42:25.739Z,116
2016-10-05T08:43:28.969Z,120
2016-10-05T08:43:54.506Z,120
2016-10-05T08:44:20.136Z,120
2016-10-05T08:44:45.765Z,120
2016-10-05T08:45:11.322Z,120
2016-10-05T08:45:36.943Z,120
2016-10-05T08:46:02.486Z,120
2016-10-05T08:46:28.051Z,120
2016-10-05T08:46:53.723Z,120
2016-10-05T08:47:19.303Z,120
2016-10-05T08:47:44.857Z,120
2016-10-05T08:48:10.409Z,120
2016-10-05T08:48:35.948Z,120
2016-10-05T08:49:01.492Z,120
2016-10-05T08:49:27.071Z,120
2016-10-05T08:49:52.629Z,120
2016-10-05T08:50:18.205Z,120
2016-10-05T08:50:43.757Z,120
2016-10-05T08:51:09.463Z,124
2016-10-05T08:51:35.059Z,120
2016-10-05T08:52:00.646Z,124
2016-10-05T08:52:26.905Z,120
2016-10-05T08:52:52.476Z,120
2016-10-05T08:53:18.093Z,120
2016-10-05T08:53:43.672Z,120
2016-10-05T08:54:09.306Z,124
2016-10-05T08:54:34.965Z,120
2016-10-05T08:55:00.533Z,124
2016-10-05T08:55:26.209Z,120
2016-10-05T08:55:51.844Z,120
2016-10-05T08:56:17.403Z,120
2016-10-05T08:56:43.047Z,120
2016-10-05T08:57:08.610Z,120
2016-10-05T08:59:10.084Z,120
2016-10-05T08:59:35.657Z,124
2016-10-05T09:00:01.314Z,124
2016-10-05T09:00:26.972Z,124
2016-10-05T09:00:52.748Z,124
2016-10-05T09:01:18.372Z,124
2016-10-05T09:01:44.002Z,124
2016-10-05T09:02:09.576Z,124
2016-10-05T09:02:35.227Z,124
2016-10-05T09:03:00.790Z,124
2016-10-05T09:03:26.365Z,124
2016-10-05T09:03:52.033Z,128
2016-10-05T09:04:17.620Z,128
2016-10-05T09:04:43.263Z,128
2016-10-05T09:05:08.822Z,128
2016-10-05T09:05:34.426Z,132
2016-10-05T09:06:00.043Z,132
2016-10-05T09:06:25.691Z,132
2016-10-05T09:06:51.293Z,132
2016-10-05T09:07:16.956Z,132
2016-10-05T09:07:42.557Z,132
2016-10-05T09:08:08.179Z,128
2016-10-05T09:08:33.788Z,132
2016-10-05T09:08:59.411Z,132
2016-10-05T09:09:25.050Z,132
2016-10-05T09:09:50.613Z,136
2016-10-05T09:10:16.235Z,136
2016-10-05T09:10:41.782Z,136
2016-10-05T09:11:07.349Z,132
2016-10-05T09:11:32.986Z,136
2016-10-05T09:11:58.637Z,136
2016-10-05T09:12:24.295Z,136
2016-10-05T09:12:49.840Z,136
2016-10-05T09:13:15.417Z,140
2016-10-05T09:13:40.947Z,140
2016-10-05T09:14:06.529Z,140
2016-10-05T09:14:32.318Z,140
2016-10-05T09:14:57.868Z,136
2016-10-05T09:15:23.452Z,144
2016-10-05T09:15:48.993Z,140
2016-10-05T09:16:14.601Z,144
2016-10-05T09:16:40.213Z,144
2016-10-05T09:17:05.822Z,148
2016-10-05T09:17:31.390Z,144
2016-10-05T09:17:56.934Z,144
2016-10-05T09:18:22.504Z,144
2016-10-05T09:18:48.052Z,144
2016-10-05T09:19:13.673Z,144
2016-10-05T09:19:39.263Z,148
2016-10-05T09:20:05.018Z,148
2016-10-05T09:20:30.665Z,148
2016-10-05T09:20:56.260Z,152
2016-10-05T09:21:21.833Z,148
2016-10-05T09:21:47.449Z,152
2016-10-05T09:22:12.995Z,152
2016-10-05T09:22:38.555Z,152
2016-10-05T09:23:04.156Z,156
2016-10-05T09:23:29.821Z,152
2016-10-05T09:23:55.513Z,156
2016-10-05T09:24:21.077Z,156
2016-10-05T09:24:46.697Z,156
2016-10-05T09:25:12.276Z,156
2016-10-05T09:25:37.903Z,160
2016-10-05T09:26:03.485Z,160
2016-10-05T09:26:29.063Z,164
2016-10-05T09:26:54.647Z,164
2016-10-05T09:27:20.195Z,164